createdAt,value
2023-11-27T00:01:06.344Z,4.20
2023-11-27T00:03:35.908Z,4.00
2023-11-27T00:06:04.269Z,4.30
2023-11-27T00:08:32.312Z,4.90
2023-11-27T00:11:01.515Z,4.50
2023-11-27T00:13:30.644Z,5.20
2023-11-27T00:15:58.828Z,5.50
2023-11-27T00:18:26.928Z,3.80
2023-11-27T00:20:55.016Z,3.90
2023-11-27T00:23:24.691Z,3.50
2023-11-27T00:25:53.104Z,7.70
2023-11-27T00:28:21.396Z,4.80
2023-11-27T00:30:49.621Z,4.50
2023-11-27T00:33:17.931Z,2.90
2023-11-27T00:35:47.150Z,3.80
2023-11-27T00:38:15.347Z,4.00
2023-11-27T00:40:43.993Z,3.30
2023-11-27T00:43:12.333Z,5.50
2023-11-27T00:45:40.534Z,5.00
2023-11-27T00:48:09.085Z,3.60
2023-11-27T00:50:37.501Z,3.50
2023-11-27T00:53:05.612Z,5.10
2023-11-27T00:55:33.798Z,4.70
2023-11-27T00:58:01.950Z,3.30
2023-11-27T01:00:30.341Z,4.60
2023-11-27T01:02:58.875Z,2.60
2023-11-27T01:05:27.301Z,2.20
2023-11-27T01:07:55.514Z,5.00
2023-11-27T01:10:23.670Z,4.40
2023-11-27T01:12:52.285Z,3.40
2023-11-27T01:15:22.917Z,3.50
2023-11-27T01:17:51.339Z,3.40
2023-11-27T01:20:21.035Z,3.40
2023-11-27T01:22:50.197Z,3.50
2023-11-27T01:25:18.457Z,4.20
2023-11-27T01:27:46.694Z,3.40
2023-11-27T01:30:16.701Z,4.10
2023-11-27T01:32:45.294Z,4.10
2023-11-27T01:35:13.628Z,4.50
2023-11-27T01:37:42.412Z,5.30
2023-11-27T01:40:11.740Z,5.50
2023-11-27T01:42:40.007Z,2.60
2023-11-27T01:45:09.124Z,4.40
2023-11-27T01:47:37.581Z,4.30
2023-11-27T01:50:08.881Z,6.00
2023-11-27T01:52:40.183Z,3.70
2023-11-27T01:55:09.637Z,3.60
2023-11-27T01:57:38.119Z,3.30
2023-11-27T02:00:07.331Z,4.40
2023-11-27T02:02:46.976Z,5.60
2023-11-27T02:05:15.610Z,4.10
2023-11-27T02:07:44.602Z,4.50
2023-11-27T02:10:13.812Z,4.80
2023-11-27T02:12:42.117Z,3.50
2023-11-27T02:15:11.112Z,3.70
2023-11-27T02:17:39.736Z,5.30
2023-11-27T02:20:10.389Z,3.50
2023-11-27T02:22:38.841Z,5.10
2023-11-27T02:25:08.268Z,5.90
2023-11-27T02:27:36.573Z,4.30
2023-11-27T02:30:05.420Z,4.40
2023-11-27T02:32:34.041Z,4.80
2023-11-27T02:35:02.126Z,4.30
2023-11-27T02:37:30.353Z,4.90
2023-11-27T02:39:58.561Z,4.30
2023-11-27T02:42:27.195Z,4.80
2023-11-27T02:44:55.662Z,5.20
2023-11-27T02:47:23.781Z,5.70
2023-11-27T02:49:52.365Z,5.50
2023-11-27T02:52:20.641Z,7.90
2023-11-27T02:54:49.311Z,4.50
2023-11-27T02:57:19.038Z,7.10
2023-11-27T02:59:47.377Z,6.80
2023-11-27T03:02:15.627Z,5.80
2023-11-27T03:04:44.299Z,5.60
2023-11-27T03:07:12.619Z,7.40
2023-11-27T03:09:40.715Z,8.00
2023-11-27T03:12:09.360Z,6.80
2023-11-27T03:14:38.301Z,7.00
2023-11-27T03:17:06.697Z,6.10
2023-11-27T03:19:47.107Z,7.30
2023-11-27T03:22:16.764Z,8.10
2023-11-27T03:24:45.022Z,6.30
2023-11-27T03:27:14.493Z,6.80
2023-11-27T03:29:42.961Z,7.50
2023-11-27T03:32:11.386Z,9.40
2023-11-27T03:34:39.721Z,4.90
2023-11-27T03:37:08.220Z,6.90
2023-11-27T03:39:37.691Z,6.10
2023-11-27T03:42:06.390Z,7.30
2023-11-27T03:44:34.824Z,7.00
2023-11-27T03:47:04.108Z,5.30
2023-11-27T03:49:34.965Z,5.00
2023-11-27T03:52:04.972Z,7.90
2023-11-27T03:54:33.472Z,9.20
2023-11-27T03:57:01.894Z,11.40
2023-11-27T03:59:30.272Z,8.40
2023-11-27T04:01:58.662Z,8.50
2023-11-27T04:04:27.692Z,7.70
2023-11-27T04:06:55.950Z,8.20
2023-11-27T04:09:24.889Z,9.00
2023-11-27T04:11:53.978Z,8.40
2023-11-27T04:14:22.273Z,106.20
2023-11-27T04:16:50.541Z,9.80
2023-11-27T04:19:18.989Z,5.50
2023-11-27T04:21:47.076Z,8.00
2023-11-27T04:24:16.716Z,28.10
2023-11-27T04:26:45.520Z,9.10
2023-11-27T04:29:13.843Z,11.30
2023-11-27T04:31:42.223Z,8.40
2023-11-27T04:34:11.179Z,4.70
2023-11-27T04:36:39.313Z,5.20
2023-11-27T04:39:12.258Z,4.50
2023-11-27T04:41:43.734Z,8.50
2023-11-27T04:44:12.014Z,6.60
2023-11-27T04:46:40.364Z,7.10
2023-11-27T04:49:11.334Z,9.00
2023-11-27T04:51:39.628Z,6.20
2023-11-27T04:54:08.517Z,8.10
2023-11-27T04:56:36.593Z,22.00
2023-11-27T04:59:04.829Z,12.30
2023-11-27T05:01:33.933Z,16.40
2023-11-27T05:04:02.181Z,8.40
2023-11-27T05:06:30.668Z,15.60
2023-11-27T05:08:59.266Z,23.60
2023-11-27T05:11:27.477Z,9.10
2023-11-27T05:13:55.677Z,7.20
2023-11-27T05:16:23.940Z,10.40
2023-11-27T05:18:52.134Z,10.60
2023-11-27T05:21:20.348Z,7.60
2023-11-27T05:23:48.521Z,8.10
2023-11-27T05:26:17.620Z,21.40
2023-11-27T05:28:46.192Z,5.40
2023-11-27T05:31:16.397Z,4.50
2023-11-27T05:33:44.910Z,4.90
2023-11-27T05:36:13.730Z,3.50
2023-11-27T05:38:41.863Z,9.70
2023-11-27T05:41:13.872Z,8.40
2023-11-27T05:43:42.336Z,6.60
2023-11-27T05:46:11.664Z,6.60
2023-11-27T05:48:40.331Z,6.50
2023-11-27T05:51:08.601Z,5.80
2023-11-27T05:53:36.729Z,7.80
2023-11-27T05:56:05.002Z,7.50
2023-11-27T05:58:33.101Z,5.60
2023-11-27T06:01:01.742Z,4.90
2023-11-27T06:03:30.234Z,9.20
2023-11-27T06:05:58.867Z,7.70
2023-11-27T06:08:27.140Z,5.60
2023-11-27T06:10:55.246Z,7.00
2023-11-27T06:13:23.468Z,7.40
2023-11-27T06:15:51.823Z,8.80
2023-11-27T06:18:20.110Z,5.80
2023-11-27T06:20:49.620Z,6.00
2023-11-27T06:23:17.928Z,4.20
2023-11-27T06:25:45.919Z,7.60
2023-11-27T06:28:14.742Z,8.90
2023-11-27T06:30:43.282Z,9.60
2023-11-27T06:33:11.509Z,18.20
2023-11-27T06:35:39.686Z,22.40
2023-11-27T06:38:07.950Z,16.30
2023-11-27T06:40:45.325Z,8.20
2023-11-27T06:43:17.322Z,13.30
2023-11-27T06:45:45.762Z,8.80
2023-11-27T06:48:14.334Z,5.30
2023-11-27T06:50:43.175Z,5.00
2023-11-27T06:53:11.531Z,5.90
2023-11-27T06:55:39.983Z,11.60
2023-11-27T06:58:09.172Z,20.40
2023-11-27T07:00:38.304Z,5.30
2023-11-27T07:03:07.193Z,84.90
2023-11-27T07:05:35.867Z,5.10
2023-11-27T07:08:04.841Z,33.40
2023-11-27T07:10:34.042Z,7.20
2023-11-27T07:13:02.540Z,9.00
2023-11-27T07:15:30.813Z,11.00
2023-11-27T07:18:13.688Z,5.10
2023-11-27T07:20:46.827Z,26.30
2023-11-27T07:23:16.527Z,6.40
2023-11-27T07:25:45.104Z,3.90
2023-11-27T07:28:13.409Z,5.00
2023-11-27T07:30:41.746Z,3.40
2023-11-27T07:33:10.573Z,3.80
2023-11-27T07:35:40.489Z,8.50
2023-11-27T07:38:08.828Z,2.50
2023-11-27T07:40:37.091Z,2.70
2023-11-27T07:43:12.358Z,3.60
2023-11-27T07:45:41.320Z,8.50
2023-11-27T07:48:09.835Z,3.10
2023-11-27T07:50:38.106Z,3.00
2023-11-27T07:53:06.388Z,4.80
2023-11-27T07:55:34.528Z,1.70
2023-11-27T07:58:03.985Z,1.90
2023-11-27T08:00:32.995Z,2.00
2023-11-27T08:03:01.162Z,1.70
2023-11-27T08:05:30.794Z,2.40
2023-11-27T08:07:59.829Z,3.90
2023-11-27T08:10:30.149Z,2.50
2023-11-27T08:12:58.663Z,2.80
2023-11-27T08:15:26.887Z,2.50
2023-11-27T08:17:56.713Z,2.30
2023-11-27T08:20:29.652Z,2.60
2023-11-27T08:22:59.400Z,5.20
2023-11-27T08:25:28.701Z,2.20
2023-11-27T08:27:58.653Z,2.20
2023-11-27T08:30:29.485Z,3.20
2023-11-27T08:32:59.565Z,11.10
2023-11-27T08:35:28.377Z,4.10
2023-11-27T08:37:57.078Z,2.70
2023-11-27T08:40:25.689Z,3.50
2023-11-27T08:42:53.978Z,3.00
2023-11-27T08:45:22.217Z,4.00
2023-11-27T08:47:53.967Z,3.00
2023-11-27T08:50:26.879Z,3.30
2023-11-27T08:52:59.830Z,2.70
2023-11-27T08:55:31.846Z,4.80
2023-11-27T08:58:04.905Z,4.00
2023-11-27T09:00:34.043Z,2.90
2023-11-27T09:03:03.487Z,3.60
2023-11-27T09:05:32.901Z,7.10
2023-11-27T09:08:07.688Z,6.20
2023-11-27T09:10:38.404Z,10.90
2023-11-27T09:13:08.044Z,2.70
2023-11-27T09:15:37.149Z,3.50
2023-11-27T09:18:05.511Z,3.90
2023-11-27T09:20:34.474Z,5.50
2023-11-27T09:23:02.734Z,2.20
2023-11-27T09:25:31.306Z,7.10
2023-11-27T09:27:59.997Z,2.10
2023-11-27T09:30:28.182Z,3.10
2023-11-27T09:32:56.618Z,10.10
2023-11-27T09:35:25.147Z,2.90
2023-11-27T09:37:53.559Z,2.70
2023-11-27T09:40:23.155Z,6.50
2023-11-27T09:42:52.324Z,3.70
2023-11-27T09:45:21.580Z,3.60
2023-11-27T09:47:51.987Z,5.80
2023-11-27T09:50:23.238Z,11.70
2023-11-27T09:52:57.020Z,5.70
2023-11-27T09:55:27.668Z,3.40
2023-11-27T09:57:56.085Z,3.10
2023-11-27T10:00:25.466Z,2.10
2023-11-27T10:02:53.951Z,2.60
2023-11-27T10:05:23.500Z,5.20
2023-11-27T10:07:52.886Z,2.80
2023-11-27T10:10:27.958Z,11.30
2023-11-27T10:13:09.641Z,1.80
2023-11-27T10:15:50.519Z,1.70
2023-11-27T10:18:20.027Z,4.70
2023-11-27T10:20:51.889Z,3.10
2023-11-27T10:23:22.254Z,2.30
2023-11-27T10:25:59.110Z,3.70
2023-11-27T10:28:42.906Z,10.70
2023-11-27T10:31:11.513Z,6.40
2023-11-27T10:33:41.798Z,2.50
2023-11-27T10:36:11.313Z,1.50
2023-11-27T10:38:40.137Z,6.60
2023-11-27T10:41:08.910Z,23.90
2023-11-27T10:43:39.300Z,5.10
2023-11-27T10:46:09.700Z,1.70
2023-11-27T10:48:44.501Z,1.20
2023-11-27T10:51:16.779Z,1.30
2023-11-27T10:53:49.212Z,10.60
2023-11-27T10:56:20.535Z,2.20
2023-11-27T10:58:51.858Z,2.40
2023-11-27T11:01:26.301Z,8.00
2023-11-27T11:04:02.308Z,9.40
2023-11-27T11:06:31.383Z,2.50
2023-11-27T11:09:02.376Z,3.10
2023-11-27T11:11:31.924Z,4.00
2023-11-27T11:14:00.896Z,2.60
2023-11-27T11:16:37.605Z,7.10
2023-11-27T11:19:13.838Z,2.30
2023-11-27T11:22:15.549Z,2.60
2023-11-27T11:25:05.343Z,25.40
2023-11-27T11:27:40.576Z,4.50
2023-11-27T11:30:14.349Z,3.20
2023-11-27T11:32:42.684Z,10.60
2023-11-27T11:35:12.700Z,3.60
2023-11-27T11:37:51.396Z,7.60
2023-11-27T11:40:20.196Z,10.00
2023-11-27T11:42:51.874Z,13.10
2023-11-27T11:45:20.673Z,12.50
2023-11-27T11:48:02.773Z,16.30
2023-11-27T11:50:42.305Z,59.80
2023-11-27T11:53:19.755Z,10.60
2023-11-27T11:55:49.785Z,45.90
2023-11-27T11:58:21.085Z,8.30
2023-11-27T12:01:02.479Z,22.60
2023-11-27T12:03:33.712Z,4.60
2023-11-27T12:06:09.971Z,23.70
2023-11-27T12:08:39.304Z,16.20
2023-11-27T12:11:08.764Z,14.80
2023-11-27T12:13:37.778Z,6.60
2023-11-27T12:16:14.569Z,6.70
2023-11-27T12:18:45.931Z,9.30
2023-11-27T12:21:25.489Z,7.50
2023-11-27T12:23:54.877Z,5.60
2023-11-27T12:26:26.619Z,7.60
2023-11-27T12:28:56.079Z,4.20
2023-11-27T12:31:29.548Z,5.20
2023-11-27T12:34:04.593Z,6.40
2023-11-27T12:36:33.105Z,2.60
2023-11-27T12:39:02.323Z,3.60
2023-11-27T12:41:35.680Z,13.20
2023-11-27T12:44:17.713Z,3.10
2023-11-27T12:46:57.232Z,3.30
2023-11-27T12:49:29.568Z,2.30
2023-11-27T12:52:08.086Z,7.30
2023-11-27T12:54:37.686Z,4.40
2023-11-27T12:57:07.647Z,3.00
2023-11-27T12:59:41.418Z,4.20
2023-11-27T13:02:09.997Z,2.60
2023-11-27T13:04:39.663Z,4.40
2023-11-27T13:07:14.081Z,3.90
2023-11-27T13:09:43.850Z,4.90
2023-11-27T13:12:20.034Z,2.40
2023-11-27T13:14:52.794Z,2.80
2023-11-27T13:17:22.309Z,4.20
2023-11-27T13:19:57.383Z,4.60
2023-11-27T13:22:34.034Z,4.30
2023-11-27T13:25:07.553Z,5.10
2023-11-27T13:27:46.668Z,5.70
2023-11-27T13:30:28.479Z,2.90
2023-11-27T13:33:01.285Z,3.90
2023-11-27T13:35:36.211Z,2.20
2023-11-27T13:38:07.982Z,3.10
2023-11-27T13:40:37.061Z,4.80
2023-11-27T13:43:10.828Z,3.30
2023-11-27T13:45:39.072Z,1.00
2023-11-27T13:48:15.166Z,1.20
2023-11-27T13:50:45.055Z,1.30
2023-11-27T13:53:25.688Z,2.80
2023-11-27T13:55:57.510Z,2.30
2023-11-27T13:58:28.885Z,1.10
2023-11-27T14:01:02.360Z,2.00
2023-11-27T14:03:33.714Z,1.60
2023-11-27T14:06:16.707Z,1.90
2023-11-27T14:08:53.253Z,3.10
2023-11-27T14:11:34.048Z,2.20
2023-11-27T14:14:11.133Z,1.30
2023-11-27T14:16:46.063Z,1.00
2023-11-27T14:19:33.802Z,0.80
2023-11-27T14:22:20.664Z,4.00
2023-11-27T14:24:54.610Z,6.00
2023-11-27T14:27:46.882Z,3.60
2023-11-27T14:30:15.933Z,12.00
2023-11-27T14:32:44.092Z,4.80
2023-11-27T14:35:16.472Z,7.00
2023-11-27T14:37:45.073Z,4.10
2023-11-27T14:40:22.284Z,2.00
2023-11-27T14:42:52.041Z,1.80
2023-11-27T14:45:20.471Z,7.00
2023-11-27T14:47:48.882Z,5.50
2023-11-27T14:50:21.989Z,3.90
2023-11-27T14:52:51.370Z,5.50
2023-11-27T14:55:21.356Z,4.40
2023-11-27T14:57:49.871Z,9.80
2023-11-27T15:00:29.246Z,7.50
2023-11-27T15:02:58.899Z,22.50
2023-11-27T15:05:30.602Z,21.30
2023-11-27T15:07:59.907Z,15.70
2023-11-27T15:10:28.710Z,12.10
2023-11-27T15:12:57.106Z,8.60
2023-11-27T15:15:27.813Z,29.10
2023-11-27T15:17:56.260Z,32.60
2023-11-27T15:20:28.268Z,22.60
2023-11-27T15:22:58.355Z,21.20
2023-11-27T15:25:26.660Z,14.80
2023-11-27T15:27:55.142Z,13.90
2023-11-27T15:30:25.727Z,20.50
2023-11-27T15:32:54.240Z,23.60
2023-11-27T15:35:26.074Z,19.00
2023-11-27T15:37:54.775Z,20.70
2023-11-27T15:40:29.695Z,13.40
2023-11-27T15:42:58.661Z,8.40
2023-11-27T15:45:28.494Z,5.50
2023-11-27T15:47:58.041Z,4.80
2023-11-27T15:50:33.835Z,5.60
2023-11-27T15:53:02.531Z,5.40
2023-11-27T15:55:31.070Z,4.70
2023-11-27T15:58:00.699Z,4.50
2023-11-27T16:00:31.526Z,5.60
2023-11-27T16:03:00.142Z,3.40
2023-11-27T16:05:29.902Z,4.40
2023-11-27T16:08:01.244Z,3.60
2023-11-27T16:10:31.072Z,15.80
2023-11-27T16:12:59.691Z,5.30
2023-11-27T16:15:28.068Z,4.50
2023-11-27T16:18:00.793Z,5.20
2023-11-27T16:23:00.650Z,3.90
2023-11-27T16:25:29.719Z,5.90
2023-11-27T16:27:58.138Z,10.50
2023-11-27T16:30:27.439Z,18.40
2023-11-27T16:32:57.223Z,20.80
2023-11-27T16:35:25.405Z,15.80
2023-11-27T16:37:53.554Z,14.20
2023-11-27T16:40:22.198Z,13.00
2023-11-27T16:42:53.903Z,11.40
2023-11-27T16:45:25.672Z,9.70
2023-11-27T16:47:58.711Z,10.10
2023-11-27T16:50:28.799Z,14.40
2023-11-27T16:52:57.936Z,11.00
2023-11-27T16:55:29.763Z,13.50
2023-11-27T16:58:07.021Z,12.90
2023-11-27T17:00:38.318Z,11.70
2023-11-27T17:03:08.674Z,12.40
2023-11-27T17:05:39.208Z,9.90
2023-11-27T17:08:20.338Z,8.50
2023-11-27T17:10:51.821Z,8.50
2023-11-27T17:13:20.450Z,13.40
2023-11-27T17:15:49.494Z,38.00
2023-11-27T17:18:17.740Z,44.60
2023-11-27T17:20:48.813Z,42.10
2023-11-27T17:23:18.342Z,38.20
2023-11-27T17:25:48.000Z,16.00
2023-11-27T17:28:16.492Z,16.70
2023-11-27T17:30:45.432Z,26.50
2023-11-27T17:33:15.710Z,24.30
2023-11-27T17:35:44.415Z,21.00
2023-11-27T17:38:13.228Z,20.90
2023-11-27T17:40:42.510Z,11.60
2023-11-27T17:43:14.093Z,8.20
2023-11-27T17:45:43.529Z,6.80
2023-11-27T17:48:12.096Z,9.10
2023-11-27T17:50:40.293Z,6.50
2023-11-27T17:53:08.700Z,7.60
2023-11-27T17:55:45.539Z,8.40
2023-11-27T17:58:19.817Z,7.80
2023-11-27T18:00:50.916Z,8.00
2023-11-27T18:03:19.096Z,9.10
2023-11-27T18:05:47.366Z,7.80
2023-11-27T18:08:16.033Z,10.20
2023-11-27T18:10:45.916Z,12.10
2023-11-27T18:13:14.367Z,9.50
2023-11-27T18:15:42.526Z,8.80
2023-11-27T18:18:10.878Z,10.40
2023-11-27T18:20:39.058Z,12.50
2023-11-27T18:23:10.886Z,16.50
2023-11-27T18:25:39.827Z,16.10
2023-11-27T18:28:08.329Z,18.80
2023-11-27T18:30:36.881Z,15.40
2023-11-27T18:33:05.261Z,15.20
2023-11-27T18:35:35.440Z,13.90
2023-11-27T18:38:03.837Z,13.60
2023-11-27T18:40:32.132Z,12.90
2023-11-27T18:43:02.247Z,11.90
2023-11-27T18:45:30.444Z,13.20
2023-11-27T18:48:01.848Z,12.50
2023-11-27T18:50:30.983Z,10.70
2023-11-27T18:53:01.013Z,11.30
2023-11-27T18:55:29.897Z,11.30
2023-11-27T18:58:01.044Z,11.90
2023-11-27T19:00:29.190Z,14.70
2023-11-27T19:02:57.484Z,11.40
2023-11-27T19:05:26.223Z,11.70
2023-11-27T19:07:54.482Z,11.70
2023-11-27T19:10:25.137Z,12.80
2023-11-27T19:12:54.074Z,9.60
2023-11-27T19:15:24.664Z,16.00
2023-11-27T19:17:53.014Z,10.80
2023-11-27T19:20:24.281Z,12.20
2023-11-27T19:22:52.417Z,10.10
2023-11-27T19:25:20.836Z,11.70
2023-11-27T19:27:49.425Z,12.50
2023-11-27T19:30:18.553Z,12.10
2023-11-27T19:32:49.380Z,12.10
2023-11-27T19:35:19.290Z,6.50
2023-11-27T19:37:47.500Z,11.10
2023-11-27T19:40:16.028Z,10.50
2023-11-27T19:42:44.238Z,12.60
2023-11-27T19:45:14.569Z,13.30
2023-11-27T19:47:42.876Z,19.40
2023-11-27T19:50:11.314Z,20.60
2023-11-27T19:52:40.065Z,17.70
2023-11-27T19:55:08.828Z,15.90
2023-11-27T19:57:36.990Z,19.90
2023-11-27T20:00:11.784Z,20.30
2023-11-27T20:02:42.712Z,21.00
2023-11-27T20:05:11.708Z,16.60
2023-11-27T20:07:40.484Z,13.90
2023-11-27T20:10:10.999Z,16.30
2023-11-27T20:12:39.255Z,19.20
2023-11-27T20:15:11.755Z,16.80
2023-11-27T20:17:41.661Z,17.40
2023-11-27T20:20:20.077Z,16.10
2023-11-27T20:22:49.110Z,11.90
2023-11-27T20:25:17.482Z,15.60
2023-11-27T20:27:48.849Z,28.00
2023-11-27T20:30:17.573Z,33.40
2023-11-27T20:32:46.371Z,42.80
2023-11-27T20:35:14.669Z,27.00
2023-11-27T20:37:42.786Z,12.10
2023-11-27T20:40:12.025Z,11.90
2023-11-27T20:42:40.958Z,23.20
2023-11-27T20:45:10.387Z,10.80
2023-11-27T20:47:38.785Z,11.60
2023-11-27T20:50:07.500Z,13.50
2023-11-27T20:52:35.706Z,9.90
2023-11-27T20:55:08.021Z,7.60
2023-11-27T20:57:38.289Z,7.70
2023-11-27T21:00:11.921Z,6.00
2023-11-27T21:02:40.821Z,14.00
2023-11-27T21:05:11.389Z,13.40
2023-11-27T21:07:39.582Z,11.50
2023-11-27T21:10:12.737Z,5.20
2023-11-27T21:12:43.263Z,6.50
2023-11-27T21:15:12.322Z,39.60
2023-11-27T21:17:40.893Z,42.30
2023-11-27T21:20:13.798Z,6.60
2023-11-27T21:22:43.845Z,4.70
2023-11-27T21:25:18.731Z,7.20
2023-11-27T21:27:51.712Z,25.90
2023-11-27T21:30:20.614Z,130.20
2023-11-27T21:32:50.586Z,67.60
2023-11-27T21:35:19.406Z,37.60
2023-11-27T21:37:48.452Z,38.60
2023-11-27T21:40:20.609Z,65.40
2023-11-27T21:42:48.731Z,97.20
2023-11-27T21:45:16.981Z,35.30
2023-11-27T21:47:45.226Z,84.80
2023-11-27T21:50:13.510Z,103.20
2023-11-27T21:52:41.806Z,89.20
2023-11-27T21:55:10.513Z,75.60
2023-11-27T21:57:39.846Z,103.30
2023-11-27T22:00:11.422Z,95.40
2023-11-27T22:02:42.715Z,74.10
2023-11-27T22:05:11.242Z,97.70
2023-11-27T22:07:40.436Z,99.70
2023-11-27T22:10:11.034Z,79.30
2023-11-27T22:12:40.338Z,68.40
2023-11-27T22:15:09.371Z,55.20
2023-11-27T22:17:37.525Z,57.60
2023-11-27T22:20:06.464Z,64.40
2023-11-27T22:22:36.090Z,64.50
2023-11-27T22:25:05.047Z,66.80
2023-11-27T22:27:33.612Z,53.80
2023-11-27T22:30:01.858Z,30.70
2023-11-27T22:32:30.743Z,18.50
2023-11-27T22:34:59.069Z,20.40
2023-11-27T22:37:27.440Z,16.40
2023-11-27T22:39:56.020Z,17.10
2023-11-27T22:42:24.335Z,21.20
2023-11-27T22:44:52.683Z,23.20
2023-11-27T22:47:21.012Z,27.20
2023-11-27T22:49:49.257Z,19.80
2023-11-27T22:52:17.529Z,15.80
2023-11-27T22:54:45.997Z,13.10
2023-11-27T22:57:14.054Z,15.10
2023-11-27T22:59:43.247Z,13.30
2023-11-27T23:02:13.055Z,15.40
2023-11-27T23:04:42.060Z,12.90
2023-11-27T23:07:10.417Z,15.90
2023-11-27T23:09:38.533Z,12.00
2023-11-27T23:12:07.299Z,16.30
2023-11-27T23:14:35.501Z,14.80
2023-11-27T23:17:04.026Z,13.30
2023-11-27T23:19:32.393Z,14.80
2023-11-27T23:22:00.881Z,19.20
2023-11-27T23:24:28.973Z,18.70
2023-11-27T23:26:57.237Z,16.70
2023-11-27T23:29:25.383Z,21.00
2023-11-27T23:31:56.927Z,19.80
2023-11-27T23:34:27.536Z,21.50
2023-11-27T23:36:55.752Z,20.40
2023-11-27T23:39:24.013Z,15.80
2023-11-27T23:41:54.530Z,17.70
2023-11-27T23:44:22.902Z,18.40
2023-11-27T23:46:52.727Z,22.20
2023-11-27T23:49:21.578Z,18.30
2023-11-27T23:51:52.219Z,21.40
2023-11-27T23:54:20.420Z,20.30
2023-11-27T23:56:48.847Z,15.90
2023-11-27T23:59:17.261Z,15.80
